createdAt,value
2023-05-21T00:01:04.716Z,1.10
2023-05-21T00:03:36.865Z,1.25
2023-05-21T00:06:14.249Z,1.25
2023-05-21T00:09:00.997Z,1.25
2023-05-21T00:11:34.956Z,1.00
2023-05-21T00:14:08.311Z,1.20
2023-05-21T00:16:39.162Z,1.33
2023-05-21T00:19:11.304Z,1.33
2023-05-21T00:21:42.096Z,1.30
2023-05-21T00:24:14.633Z,1.60
2023-05-21T00:26:47.996Z,1.30
2023-05-21T00:29:18.599Z,1.63
2023-05-21T00:31:49.433Z,1.70
2023-05-21T00:34:22.567Z,1.77
2023-05-21T00:36:56.294Z,1.42
2023-05-21T00:39:28.924Z,1.70
2023-05-21T00:42:02.609Z,1.40
2023-05-21T00:44:35.286Z,1.40
2023-05-21T00:47:07.461Z,1.55
2023-05-21T00:49:38.313Z,1.55
2023-05-21T00:52:12.538Z,1.25
2023-05-21T00:54:45.095Z,1.38
2023-05-21T00:57:16.193Z,1.77
2023-05-21T00:59:47.379Z,1.60
2023-05-21T01:02:19.036Z,1.90
2023-05-21T01:04:49.850Z,1.90
2023-05-21T01:07:21.110Z,1.67
2023-05-21T01:09:55.535Z,2.08
2023-05-21T01:12:31.162Z,1.38
2023-05-21T01:15:09.823Z,1.65
2023-05-21T01:17:44.059Z,1.63
2023-05-21T01:20:19.958Z,1.65
2023-05-21T01:22:59.325Z,1.90
2023-05-21T01:25:30.042Z,1.65
2023-05-21T01:28:00.630Z,1.60
2023-05-21T01:30:31.510Z,1.50
2023-05-21T01:33:16.844Z,1.90
2023-05-21T01:35:56.736Z,2.60
2023-05-21T01:38:36.790Z,2.13
2023-05-21T01:43:45.263Z,1.70
2023-05-21T01:46:25.711Z,2.30
2023-05-21T01:48:58.412Z,2.28
2023-05-21T01:51:30.147Z,1.90
2023-05-21T01:54:02.425Z,1.52
2023-05-21T01:56:36.885Z,1.40
2023-05-21T01:59:08.261Z,1.45
2023-05-21T02:01:38.793Z,1.40
2023-05-21T02:04:14.624Z,1.50
2023-05-21T02:06:45.322Z,1.50
2023-05-21T02:09:20.440Z,1.60
2023-05-21T02:11:51.075Z,1.65
2023-05-21T02:14:21.796Z,1.73
2023-05-21T02:16:53.521Z,2.10
2023-05-21T02:19:24.419Z,1.50
2023-05-21T02:21:55.083Z,1.80
2023-05-21T02:24:28.249Z,1.45
2023-05-21T02:26:59.510Z,1.75
2023-05-21T02:29:30.261Z,1.60
2023-05-21T02:32:03.673Z,1.60
2023-05-21T02:34:43.137Z,1.52
2023-05-21T02:37:13.880Z,2.17
2023-05-21T02:39:48.552Z,1.70
2023-05-21T02:42:19.124Z,1.63
2023-05-21T02:44:49.942Z,1.70
2023-05-21T02:47:20.717Z,2.03
2023-05-21T02:49:55.255Z,1.90
2023-05-21T02:52:26.002Z,1.77
2023-05-21T02:54:58.546Z,2.20
2023-05-21T02:57:29.275Z,2.10
2023-05-21T03:00:00.453Z,1.67
2023-05-21T03:02:33.928Z,1.92
2023-05-21T03:05:06.166Z,1.85
2023-05-21T03:07:39.373Z,1.60
2023-05-21T03:10:13.489Z,2.13
2023-05-21T03:12:44.248Z,1.83
2023-05-21T03:15:18.236Z,2.10
2023-05-21T03:17:59.169Z,2.42
2023-05-21T03:20:34.326Z,2.47
2023-05-21T03:23:05.216Z,2.20
2023-05-21T03:25:37.880Z,2.42
2023-05-21T03:28:10.988Z,1.83
2023-05-21T03:30:42.248Z,2.00
2023-05-21T03:33:13.530Z,2.60
2023-05-21T03:35:44.250Z,2.28
2023-05-21T03:38:14.829Z,2.05
2023-05-21T03:40:47.075Z,2.10
2023-05-21T03:43:23.531Z,1.90
2023-05-21T03:46:00.457Z,2.28
2023-05-21T03:48:31.270Z,2.20
2023-05-21T03:51:02.502Z,2.30
2023-05-21T03:53:41.927Z,1.88
2023-05-21T03:56:14.212Z,2.10
2023-05-21T03:58:44.950Z,2.20
2023-05-21T04:01:18.843Z,2.38
2023-05-21T04:03:49.775Z,2.25
2023-05-21T04:06:26.331Z,2.50
2023-05-21T04:08:56.878Z,2.90
2023-05-21T04:11:29.163Z,2.08
2023-05-21T04:13:59.746Z,1.60
2023-05-21T04:16:30.539Z,1.50
2023-05-21T04:19:01.267Z,1.73
2023-05-21T04:21:37.554Z,1.50
2023-05-21T04:24:08.248Z,1.00
2023-05-21T04:26:43.002Z,0.90
2023-05-21T04:29:13.621Z,1.02
2023-05-21T04:31:44.369Z,1.08
2023-05-21T04:34:18.870Z,0.80
2023-05-21T04:36:50.380Z,0.75
2023-05-21T04:39:22.732Z,0.73
2023-05-21T04:41:55.782Z,0.60
2023-05-21T04:44:29.198Z,0.60
2023-05-21T04:46:59.835Z,0.60
2023-05-21T04:49:38.543Z,0.90
2023-05-21T04:52:09.251Z,0.70
2023-05-21T04:54:40.110Z,0.73
2023-05-21T04:57:14.314Z,0.70
2023-05-21T04:59:48.038Z,1.02
2023-05-21T05:02:18.951Z,0.98
2023-05-21T05:04:52.055Z,0.80
2023-05-21T05:07:22.788Z,0.90
2023-05-21T05:09:53.687Z,0.90
2023-05-21T05:12:26.933Z,0.85
2023-05-21T05:14:57.646Z,0.80
2023-05-21T05:17:28.382Z,0.80
2023-05-21T05:20:01.871Z,0.60
2023-05-21T05:22:32.456Z,0.70
2023-05-21T05:25:03.707Z,0.73
2023-05-21T05:27:37.792Z,0.70
2023-05-21T05:30:13.413Z,1.55
2023-05-21T05:32:44.129Z,0.60
2023-05-21T05:35:14.954Z,1.77
2023-05-21T05:37:45.666Z,0.82
2023-05-21T05:40:16.316Z,1.55
2023-05-21T05:42:50.260Z,0.80
2023-05-21T05:45:20.895Z,0.82
2023-05-21T05:47:58.672Z,0.70
2023-05-21T05:50:29.332Z,0.75
2023-05-21T05:52:59.893Z,0.90
2023-05-21T05:55:33.640Z,1.20
2023-05-21T05:58:10.425Z,1.15
2023-05-21T06:00:42.061Z,1.02
2023-05-21T06:03:14.581Z,1.02
2023-05-21T06:05:46.568Z,1.08
2023-05-21T06:08:18.382Z,1.00
2023-05-21T06:10:50.050Z,1.05
2023-05-21T06:13:23.449Z,1.30
2023-05-21T06:15:56.491Z,1.13
2023-05-21T06:18:28.279Z,1.10
2023-05-21T06:20:59.970Z,0.90
2023-05-21T06:23:33.309Z,2.45
2023-05-21T06:26:05.070Z,1.30
2023-05-21T06:28:38.833Z,1.50
2023-05-21T06:31:10.664Z,1.05
2023-05-21T06:33:42.376Z,0.90
2023-05-21T06:36:13.991Z,0.85
2023-05-21T06:38:45.656Z,1.00
2023-05-21T06:41:17.368Z,0.70
2023-05-21T06:43:50.481Z,0.90
2023-05-21T06:46:24.481Z,0.70
2023-05-21T06:48:58.834Z,0.80
2023-05-21T06:51:30.461Z,0.82
2023-05-21T06:54:02.199Z,0.63
2023-05-21T06:56:34.030Z,0.70
2023-05-21T06:59:10.528Z,0.50
2023-05-21T07:01:45.742Z,0.60
2023-05-21T07:04:17.487Z,1.63
2023-05-21T07:06:49.878Z,0.50
2023-05-21T07:09:21.496Z,0.60
2023-05-21T07:11:53.101Z,0.60
2023-05-21T07:14:27.258Z,0.63
2023-05-21T07:16:59.161Z,0.50
2023-05-21T07:19:31.157Z,0.57
2023-05-21T07:22:02.797Z,0.50
2023-05-21T07:24:34.632Z,0.60
2023-05-21T07:27:17.782Z,0.50
2023-05-21T07:29:57.839Z,0.55
2023-05-21T07:32:33.104Z,0.50
2023-05-21T07:35:05.453Z,0.70
2023-05-21T07:37:36.975Z,0.70
2023-05-21T07:40:10.398Z,0.52
2023-05-21T07:42:42.039Z,0.60
2023-05-21T07:45:15.761Z,0.60
2023-05-21T07:47:48.744Z,0.50
2023-05-21T07:50:20.626Z,0.50
2023-05-21T07:52:52.332Z,0.60
2023-05-21T07:55:24.883Z,0.60
2023-05-21T07:57:56.679Z,0.40
2023-05-21T08:00:30.198Z,0.50
2023-05-21T08:03:02.267Z,0.60
2023-05-21T08:05:34.312Z,0.50
2023-05-21T08:08:09.411Z,0.65
2023-05-21T08:10:41.193Z,0.47
2023-05-21T08:13:12.896Z,0.50
2023-05-21T08:15:46.391Z,0.55
2023-05-21T08:18:19.009Z,0.70
2023-05-21T08:20:51.748Z,1.20
2023-05-21T08:23:24.066Z,0.90
2023-05-21T08:25:56.159Z,0.80
2023-05-21T08:28:28.943Z,0.80
2023-05-21T08:31:02.825Z,0.90
2023-05-21T08:33:34.640Z,1.15
2023-05-21T08:36:09.284Z,1.00
2023-05-21T08:38:40.831Z,0.85
2023-05-21T08:41:12.623Z,1.00
2023-05-21T08:43:44.512Z,0.90
2023-05-21T08:46:22.882Z,1.10
2023-05-21T08:48:56.946Z,1.15
2023-05-21T08:51:29.107Z,1.30
2023-05-21T08:54:03.327Z,0.90
2023-05-21T08:56:37.929Z,1.00
2023-05-21T08:59:10.569Z,1.10
2023-05-21T09:01:45.429Z,1.10
2023-05-21T09:04:21.879Z,1.10
2023-05-21T09:07:25.325Z,1.30
2023-05-21T09:09:59.927Z,1.40
2023-05-21T09:12:31.927Z,1.30
2023-05-21T09:15:04.421Z,1.25
2023-05-21T09:17:37.853Z,1.40
2023-05-21T09:20:17.038Z,1.05
2023-05-21T09:22:49.563Z,0.50
2023-05-21T09:25:28.895Z,0.60
2023-05-21T09:28:02.169Z,1.50
2023-05-21T09:30:36.526Z,1.25
2023-05-21T09:33:11.114Z,0.40
2023-05-21T09:35:49.398Z,0.50
2023-05-21T09:38:26.435Z,0.63
2023-05-21T09:40:59.803Z,0.50
2023-05-21T09:43:41.186Z,0.45
2023-05-21T09:46:12.808Z,0.40
2023-05-21T09:48:46.931Z,0.73
2023-05-21T09:51:19.114Z,0.40
2023-05-21T09:53:54.548Z,0.70
2023-05-21T09:56:26.911Z,0.50
2023-05-21T09:58:59.532Z,0.90
2023-05-21T10:01:34.971Z,1.02
2023-05-21T10:04:11.206Z,0.95
2023-05-21T10:06:49.221Z,0.90
2023-05-21T10:09:24.048Z,0.80
2023-05-21T10:50:17.664Z,1.00
2023-05-21T10:53:05.339Z,1.10
2023-05-21T10:55:46.713Z,0.75
2023-05-21T10:58:43.093Z,1.00
2023-05-21T11:01:15.954Z,0.90
2023-05-21T11:03:47.642Z,0.70
2023-05-21T11:06:28.138Z,1.00
2023-05-21T11:09:04.542Z,1.92
2023-05-21T11:11:47.113Z,1.00
2023-05-21T11:14:39.693Z,1.13
2023-05-21T11:17:16.781Z,1.17
2023-05-21T11:19:49.976Z,0.85
2023-05-21T11:22:31.551Z,0.80
2023-05-21T11:25:07.646Z,0.80
2023-05-21T11:27:41.348Z,0.90
2023-05-21T11:30:17.933Z,1.30
2023-05-21T11:33:22.396Z,1.10
2023-05-21T11:36:03.008Z,0.80
2023-05-21T11:38:35.421Z,1.00
2023-05-21T11:41:09.321Z,0.90
2023-05-21T11:43:44.816Z,0.80
2023-05-21T11:46:18.389Z,0.80
2023-05-21T11:48:51.515Z,0.98
2023-05-21T11:51:23.506Z,0.80
2023-05-21T11:53:58.368Z,0.90
2023-05-21T11:56:33.724Z,0.73
2023-05-21T11:59:07.018Z,0.70
2023-05-21T12:01:38.852Z,1.00
2023-05-21T12:04:14.610Z,0.70
2023-05-21T12:06:47.424Z,0.60
2023-05-21T12:09:19.057Z,1.00
2023-05-21T12:11:52.634Z,0.75
2023-05-21T12:14:25.915Z,0.88
2023-05-21T12:16:57.968Z,0.80
2023-05-21T12:23:44.764Z,0.85
2023-05-21T12:26:20.123Z,0.60
2023-05-21T12:28:53.523Z,0.80
2023-05-21T12:31:25.967Z,0.90
2023-05-21T12:33:57.949Z,1.40
2023-05-21T12:36:31.915Z,1.30
2023-05-21T12:39:03.679Z,1.10
2023-05-21T12:41:35.448Z,1.00
2023-05-21T12:44:10.219Z,1.45
2023-05-21T12:46:42.129Z,1.17
2023-05-21T12:49:40.658Z,0.77
2023-05-21T12:52:15.715Z,1.10
2023-05-21T12:54:49.246Z,1.00
2023-05-21T12:57:22.061Z,1.10
2023-05-21T12:59:58.152Z,1.05
2023-05-21T13:02:30.919Z,1.20
2023-05-21T13:05:03.742Z,1.42
2023-05-21T13:07:36.609Z,1.38
2023-05-21T13:10:10.299Z,1.35
2023-05-21T13:12:43.448Z,1.20
2023-05-21T13:15:17.963Z,2.22
2023-05-21T13:17:50.606Z,1.10
2023-05-21T13:20:27.903Z,0.85
2023-05-21T13:22:59.605Z,0.82
2023-05-21T13:25:31.841Z,0.55
2023-05-21T13:28:07.193Z,0.68
2023-05-21T13:30:40.923Z,1.35
2023-05-21T13:33:12.801Z,0.70
2023-05-21T13:35:44.410Z,0.88
2023-05-21T13:38:15.986Z,0.93
2023-05-21T13:40:47.646Z,0.77
2023-05-21T13:43:19.243Z,0.70
2023-05-21T13:45:53.149Z,0.70
2023-05-21T13:48:24.599Z,0.60
2023-05-21T13:50:57.967Z,0.75
2023-05-21T13:53:29.562Z,0.90
2023-05-21T13:56:01.408Z,0.80
2023-05-21T13:59:07.050Z,1.00
2023-05-21T14:01:40.602Z,0.77
2023-05-21T14:04:15.200Z,0.65
2023-05-21T14:06:47.481Z,0.70
2023-05-21T14:09:19.649Z,0.60
2023-05-21T14:11:51.529Z,0.60
2023-05-21T14:14:23.398Z,0.60
2023-05-21T14:16:57.080Z,0.50
2023-05-21T14:19:31.402Z,0.50
2023-05-21T14:22:03.454Z,0.50
2023-05-21T14:24:35.171Z,0.60
2023-05-21T14:27:07.380Z,0.60
2023-05-21T14:29:39.167Z,0.43
2023-05-21T14:32:14.433Z,0.43
2023-05-21T14:34:46.047Z,0.50
2023-05-21T14:37:17.770Z,0.55
2023-05-21T14:39:49.571Z,0.60
2023-05-21T14:42:21.569Z,0.63
2023-05-21T14:44:53.208Z,0.65
2023-05-21T14:47:26.830Z,0.60
2023-05-21T14:49:58.777Z,0.50
2023-05-21T14:52:30.793Z,0.70
2023-05-21T14:55:02.312Z,0.68
2023-05-21T14:57:34.011Z,0.88
2023-05-21T15:00:06.692Z,0.75
2023-05-21T15:02:40.360Z,0.82
2023-05-21T15:05:12.455Z,0.88
2023-05-21T15:07:44.136Z,0.85
2023-05-21T15:10:18.485Z,0.90
2023-05-21T15:12:50.399Z,0.75
2023-05-21T15:15:22.745Z,0.95
2023-05-21T15:17:56.265Z,0.80
2023-05-21T15:20:27.916Z,1.00
2023-05-21T15:25:37.225Z,1.00
2023-05-21T15:28:18.934Z,0.73
2023-05-21T15:30:50.477Z,1.00
2023-05-21T15:33:24.039Z,0.98
2023-05-21T15:35:55.831Z,0.70
2023-05-21T15:38:27.360Z,1.00
2023-05-21T15:40:59.159Z,0.73
2023-05-21T15:43:30.873Z,0.82
2023-05-21T15:46:02.652Z,1.17
2023-05-21T15:48:36.087Z,0.95
2023-05-21T15:51:07.844Z,1.20
2023-05-21T15:53:39.643Z,1.40
2023-05-21T15:56:11.405Z,0.80
2023-05-21T15:58:43.047Z,0.75
2023-05-21T16:01:14.909Z,1.00
2023-05-21T16:03:48.438Z,0.90
2023-05-21T16:06:21.006Z,1.45
2023-05-21T16:08:53.104Z,1.05
2023-05-21T16:11:28.805Z,0.90
2023-05-21T16:14:00.766Z,0.80
2023-05-21T16:16:32.808Z,1.00
2023-05-21T16:19:09.352Z,0.85
2023-05-21T16:21:41.053Z,0.82
2023-05-21T16:24:12.889Z,1.02
2023-05-21T16:26:44.651Z,1.00
2023-05-21T16:29:17.488Z,0.90
2023-05-21T16:31:49.146Z,1.05
2023-05-21T16:34:23.033Z,1.00
2023-05-21T16:36:57.689Z,0.88
2023-05-21T16:39:29.447Z,1.20
2023-05-21T16:42:02.640Z,1.00
2023-05-21T16:44:34.714Z,1.00
2023-05-21T16:47:06.490Z,0.70
2023-05-21T16:49:39.884Z,1.20
2023-05-21T16:52:11.675Z,0.80
2023-05-21T16:54:45.722Z,0.80
2023-05-21T16:57:17.978Z,0.85
2023-05-21T16:59:49.770Z,1.08
2023-05-21T17:02:21.733Z,1.17
2023-05-21T17:04:55.533Z,1.00
2023-05-21T17:07:27.329Z,1.02
2023-05-21T17:09:59.158Z,0.90
2023-05-21T17:12:31.172Z,0.85
2023-05-21T17:15:02.865Z,0.90
2023-05-21T17:17:34.778Z,1.10
2023-05-21T17:20:08.630Z,0.93
2023-05-21T17:22:40.558Z,0.88
2023-05-21T17:25:13.172Z,0.88
2023-05-21T17:27:44.824Z,1.02
2023-05-21T17:30:17.401Z,1.00
2023-05-21T17:32:49.284Z,1.20
2023-05-21T17:35:23.967Z,1.00
2023-05-21T17:37:56.400Z,0.93
2023-05-21T17:40:28.078Z,1.00
2023-05-21T17:42:59.777Z,0.80
2023-05-21T17:45:31.406Z,0.80
2023-05-21T17:48:03.150Z,0.82
2023-05-21T17:50:37.265Z,0.80
2023-05-21T17:53:08.828Z,0.90
2023-05-21T17:55:40.724Z,0.70
2023-05-21T17:58:12.940Z,0.80
2023-05-21T18:00:44.703Z,0.73
2023-05-21T18:03:16.528Z,0.60
2023-05-21T18:05:50.413Z,1.23
2023-05-21T18:08:22.074Z,0.60
2023-05-21T18:10:53.764Z,0.70
2023-05-21T18:13:25.399Z,0.70
2023-05-21T18:15:58.605Z,1.00
2023-05-21T18:18:30.349Z,0.82
2023-05-21T18:21:04.198Z,0.80
2023-05-21T18:23:35.989Z,0.95
2023-05-21T18:26:07.896Z,0.80
2023-05-21T18:28:39.844Z,0.70
2023-05-21T18:31:14.052Z,0.80
2023-05-21T18:33:45.770Z,0.70
2023-05-21T18:36:19.607Z,0.70
2023-05-21T18:38:52.070Z,0.80
2023-05-21T18:41:24.752Z,0.80
2023-05-21T18:43:56.350Z,0.80
2023-05-21T18:46:28.284Z,0.70
2023-05-21T18:49:00.216Z,0.68
2023-05-21T18:51:33.891Z,0.90
2023-05-21T18:54:05.787Z,0.80
2023-05-21T18:56:37.852Z,0.63
2023-05-21T18:59:09.518Z,0.80
2023-05-21T19:01:42.277Z,0.73
2023-05-21T19:04:14.237Z,0.70
2023-05-21T19:06:47.819Z,0.73
2023-05-21T19:09:19.690Z,0.60
2023-05-21T19:11:51.481Z,0.73
2023-05-21T19:14:23.319Z,0.80
2023-05-21T19:17:04.524Z,0.90
2023-05-21T19:19:36.255Z,0.77
2023-05-21T19:22:10.365Z,0.88
2023-05-21T19:24:42.913Z,0.80
2023-05-21T19:27:15.482Z,1.00
2023-05-21T19:29:47.480Z,1.00
2023-05-21T19:32:20.079Z,0.90
2023-05-21T19:34:51.838Z,1.55
2023-05-21T19:37:25.260Z,1.08
2023-05-21T19:39:57.077Z,1.10
2023-05-21T19:42:29.215Z,0.90
2023-05-21T19:45:01.972Z,0.90
2023-05-21T19:47:35.006Z,1.27
2023-05-21T19:50:07.103Z,0.80
2023-05-21T19:52:42.133Z,1.38
2023-05-21T19:55:15.156Z,1.00
2023-05-21T19:57:48.140Z,1.17
2023-05-21T20:00:20.576Z,1.13
2023-05-21T20:02:53.260Z,1.20
2023-05-21T20:05:24.990Z,0.93
2023-05-21T20:07:59.826Z,1.00
2023-05-21T20:10:31.459Z,1.00
2023-05-21T20:13:03.762Z,0.80
2023-05-21T20:15:36.363Z,1.00
2023-05-21T20:18:08.500Z,0.90
2023-05-21T20:20:40.516Z,0.82
2023-05-21T20:23:14.997Z,1.08
2023-05-21T20:25:52.894Z,1.00
2023-05-21T20:28:25.048Z,1.27
2023-05-21T20:30:59.410Z,1.20
2023-05-21T20:33:33.960Z,1.10
2023-05-21T20:36:06.040Z,1.10
2023-05-21T20:38:40.201Z,1.60
2023-05-21T20:41:11.841Z,1.25
2023-05-21T20:43:47.087Z,1.00
2023-05-21T20:46:19.426Z,0.90
2023-05-21T20:48:51.120Z,0.70
2023-05-21T20:51:22.768Z,0.60
2023-05-21T20:53:56.031Z,0.60
2023-05-21T20:56:40.914Z,0.80
2023-05-21T20:59:13.852Z,0.73
2023-05-21T21:01:45.638Z,0.60
2023-05-21T21:04:19.108Z,0.80
2023-05-21T21:06:51.432Z,0.80
2023-05-21T21:09:24.877Z,0.70
2023-05-21T21:11:57.189Z,0.60
2023-05-21T21:14:32.129Z,0.70
2023-05-21T21:17:03.656Z,0.80
2023-05-21T21:19:36.517Z,0.80
2023-05-21T21:22:08.901Z,0.90
2023-05-21T21:24:42.184Z,0.80
2023-05-21T21:27:14.119Z,0.80
2023-05-21T21:29:45.788Z,0.70
2023-05-21T21:32:17.430Z,0.70
2023-05-21T21:34:49.121Z,0.73
2023-05-21T21:37:20.692Z,0.68
2023-05-21T21:39:54.120Z,0.73
2023-05-21T21:42:25.938Z,0.80
2023-05-21T21:44:57.781Z,0.80
2023-05-21T21:47:29.711Z,0.90
2023-05-21T21:50:02.521Z,0.80
2023-05-21T21:52:34.653Z,0.70
2023-05-21T21:55:08.768Z,0.63
2023-05-21T21:57:40.440Z,0.50
2023-05-21T22:00:27.295Z,0.68
2023-05-21T22:02:59.406Z,0.70
2023-05-21T22:05:32.586Z,0.70
2023-05-21T22:08:04.366Z,0.68
2023-05-21T22:10:39.529Z,0.60
2023-05-21T22:13:11.470Z,0.60
2023-05-21T22:15:43.000Z,0.70
2023-05-21T22:18:18.489Z,0.80
2023-05-21T22:20:54.531Z,0.57
2023-05-21T22:23:26.400Z,0.50
2023-05-21T22:26:00.844Z,0.60
2023-05-21T22:28:32.570Z,0.60
2023-05-21T22:31:04.949Z,0.70
2023-05-21T22:33:37.850Z,0.70
2023-05-21T22:36:10.571Z,1.13
2023-05-21T22:38:42.160Z,0.63
2023-05-21T22:41:16.141Z,0.70
2023-05-21T22:43:49.165Z,0.70
2023-05-21T22:46:21.012Z,0.60
2023-05-21T22:48:52.683Z,0.70
2023-05-21T22:51:25.083Z,0.50
2023-05-21T22:53:56.978Z,0.65
2023-05-21T22:56:31.699Z,0.50
2023-05-21T22:59:04.144Z,0.60
2023-05-21T23:01:36.100Z,0.70
2023-05-21T23:04:08.104Z,0.70
2023-05-21T23:06:39.764Z,0.65
2023-05-21T23:09:14.731Z,0.60
2023-05-21T23:11:49.033Z,0.70
2023-05-21T23:14:21.407Z,0.60
2023-05-21T23:16:55.094Z,0.70
2023-05-21T23:19:26.846Z,0.70
2023-05-21T23:21:58.960Z,0.88
2023-05-21T23:24:31.738Z,0.60
2023-05-21T23:27:05.213Z,0.50
2023-05-21T23:29:36.944Z,0.60
2023-05-21T23:32:09.302Z,0.50
2023-05-21T23:34:41.605Z,0.50
2023-05-21T23:37:13.893Z,0.60
2023-05-21T23:39:49.131Z,0.70
2023-05-21T23:42:22.758Z,0.65
2023-05-21T23:44:54.683Z,0.68
2023-05-21T23:47:26.647Z,0.57
2023-05-21T23:49:58.608Z,0.73
2023-05-21T23:52:30.145Z,0.60
